This is the latest recevied weather packets stored in our database for station/object Ad4UU. If no packets are shown the sender has not sent any weather packets the latest 10 day(s).
| Time | Temp. | Humidity | Pressure | Rain* | Wind** | Luminosity | Snow |
|---|---|---|---|---|---|---|---|
| 1777382430 | 21.11° C | 90% | 1021.8 hPa | 0 mm | - | - | - |
| 1777382148 | 20.56° C | 91% | 1021.9 hPa | 0 mm | - | - | - |
| 1777381834 | 20.56° C | 93% | 1021.7 hPa | 0 mm | - | - | - |
| 1777380347 | 18.33° C | 98% | 1021.5 hPa | 0 mm | - | - | - |
| 1777378830 | 17.22° C | 99% | 1021.4 hPa | 0 mm | - | - | - |
| 1777378544 | 16.67° C | 99% | 1021.6 hPa | 0 mm | - | - | - |
| 1777377653 | 16.11° C | 99% | 1021.4 hPa | 0 mm | - | - | - |
| 1777376753 | 15.56° C | 99% | 1021.2 hPa | 0 mm | - | - | - |
| 1777374945 | 15° C | 98% | 1020.7 hPa | 0 mm | - | - | - |
| 1777374633 | 15° C | 99% | 1020.6 hPa | 0 mm | - | - | - |
| 1777372831 | 14.44° C | 99% | 1020.2 hPa | 0 mm | - | - | - |
| 1777371631 | 13.89° C | 97% | 1020.4 hPa | 0 mm | - | - | - |
| 1777371030 | 13.89° C | 97% | 1020.3 hPa | 0 mm | - | - | - |
| 1777369551 | 13.89° C | 97% | 1020.2 hPa | 0 mm | - | - | - |
| 1777369233 | 14.44° C | 97% | 1020.2 hPa | 0 mm | - | - | - |
| 1777368032 | 13.89° C | 96% | 1019.9 hPa | 0 mm | - | - | - |
| 1777364430 | 14.44° C | 95% | 1020 hPa | 0 mm | - | - | - |
| 1777361447 | 15.56° C | 95% | 1020.1 hPa | 0 mm | - | - | - |
| 1777359932 | 15.56° C | 94% | 1020.2 hPa | 0 mm | - | - | - |
| 1777359654 | 15.56° C | 94% | 1020.4 hPa | 0 mm | - | - | - |
| 1777358431 | 15.56° C | 93% | 1020.8 hPa | 0 mm | - | - | - |
| 1777357529 | 16.11° C | 92% | 1020.9 hPa | 0 mm | - | - | - |
| 1777355430 | 17.22° C | 91% | 1021.3 hPa | 0 mm | - | - | - |
| 1777352450 | 17.78° C | 90% | 1021.6 hPa | 0 mm | - | - | - |
| 1777352131 | 17.78° C | 89% | 1021.7 hPa | 0 mm | - | - | - |
* Rain latest hour (hover to see other rain measurements)
** Current wind speed in m/s (hover to see current wind gust speed)